SWU1923 LIEO-LIPB
Flight info
| Callsign | SWU1923 |
|---|---|
| Flight time | 1h 18m |
| Altitude | 24000 |
| Route | OLBEK DCT NEMIT DCT OMAKU DCT ADOSA |
| Aircraft | DH8D/M-SDE2E3FGRY/H |
Departure
| Time | 2026-04-23 12:15 |
|---|---|
| Airport | Olbia Costa Smeralda Airport (LIEO) |
Arrival
| Time | 2026-04-23 13:34 |
|---|---|
| Airport | Bolzano Airport (LIPB) |
| Time | Latitude | Longitude | Altitude | Speed | Heading |
|---|---|---|---|---|---|
| 2026-04-23 12:03 | 40.89539 | 9.50558 | 48 ft | 0 kts | 86° |
| 2026-04-23 12:11 | 40.89539 | 9.50559 | 51 ft | 0 kts | 86° |
| 2026-04-23 12:11 | 40.89545 | 9.50568 | 51 ft | 2 kts | 8° |
| 2026-04-23 12:12 | 40.89560 | 9.50530 | 51 ft | 8 kts | 296° |
| 2026-04-23 12:12 | 40.89546 | 9.50438 | 51 ft | 11 kts | 241° |
| 2026-04-23 12:12 | 40.89505 | 9.50347 | 51 ft | 11 kts | 236° |
| 2026-04-23 12:12 | 40.89469 | 9.50306 | 51 ft | 4 kts | 164° |
| 2026-04-23 12:13 | 40.89437 | 9.50341 | 51 ft | 6 kts | 140° |
| 2026-04-23 12:13 | 40.89400 | 9.50379 | 51 ft | 7 kts | 141° |
| 2026-04-23 12:13 | 40.89355 | 9.50404 | 51 ft | 7 kts | 153° |
| 2026-04-23 12:13 | 40.89311 | 9.50441 | 51 ft | 7 kts | 146° |
| 2026-04-23 12:14 | 40.89280 | 9.50493 | 51 ft | 7 kts | 103° |
| 2026-04-23 12:14 | 40.89269 | 9.50551 | 51 ft | 6 kts | 117° |
| 2026-04-23 12:14 | 40.89257 | 9.50596 | 51 ft | 5 kts | 68° |
| 2026-04-23 12:14 | 40.89366 | 9.50805 | 51 ft | 66 kts | 55° |
| 2026-04-23 12:15 | 40.89778 | 9.51590 | 52 ft | 135 kts | 55° |
| 2026-04-23 12:15 | 40.90327 | 9.52722 | 308 ft | 152 kts | 56° |
| 2026-04-23 12:15 | 40.90886 | 9.53963 | 765 ft | 164 kts | 58° |
| 2026-04-23 12:15 | 40.91432 | 9.55288 | 1389 ft | 167 kts | 58° |
| 2026-04-23 12:16 | 40.92039 | 9.56641 | 1825 ft | 180 kts | 52° |
| 2026-04-23 12:16 | 40.92780 | 9.58109 | 2186 ft | 195 kts | 50° |
| 2026-04-23 12:16 | 40.93608 | 9.59486 | 2839 ft | 195 kts | 49° |
| 2026-04-23 12:16 | 40.94448 | 9.60915 | 3447 ft | 197 kts | 47° |
| 2026-04-23 12:17 | 40.95291 | 9.62298 | 4139 ft | 195 kts | 46° |
| 2026-04-23 12:17 | 40.96154 | 9.63675 | 4671 ft | 202 kts | 47° |
| 2026-04-23 12:17 | 40.97058 | 9.65184 | 4998 ft | 217 kts | 52° |
| 2026-04-23 12:17 | 40.97939 | 9.66823 | 5598 ft | 217 kts | 54° |
| 2026-04-23 12:18 | 40.98963 | 9.68288 | 6062 ft | 219 kts | 34° |
| 2026-04-23 12:18 | 41.00299 | 9.69208 | 6517 ft | 221 kts | 26° |
| 2026-04-23 12:18 | 41.01687 | 9.70071 | 6991 ft | 221 kts | 25° |
| 2026-04-23 12:18 | 41.03086 | 9.70938 | 7460 ft | 222 kts | 25° |
| 2026-04-23 12:19 | 41.04473 | 9.71800 | 7962 ft | 223 kts | 25° |
| 2026-04-23 12:19 | 41.05888 | 9.72684 | 8478 ft | 225 kts | 25° |
| 2026-04-23 12:19 | 41.07302 | 9.73571 | 8981 ft | 227 kts | 25° |
| 2026-04-23 12:19 | 41.08719 | 9.74460 | 9476 ft | 228 kts | 25° |
| 2026-04-23 12:20 | 41.10154 | 9.75362 | 9967 ft | 230 kts | 25° |
| 2026-04-23 12:20 | 41.11603 | 9.76275 | 10458 ft | 232 kts | 25° |
| 2026-04-23 12:20 | 41.13058 | 9.77192 | 10937 ft | 233 kts | 25° |
| 2026-04-23 12:20 | 41.14535 | 9.78123 | 11404 ft | 235 kts | 25° |
| 2026-04-23 12:21 | 41.15996 | 9.79048 | 11871 ft | 236 kts | 25° |
| 2026-04-23 12:21 | 41.17491 | 9.79992 | 12345 ft | 237 kts | 24° |
| 2026-04-23 12:21 | 41.18979 | 9.80933 | 12802 ft | 237 kts | 24° |
| 2026-04-23 12:21 | 41.20470 | 9.81875 | 13249 ft | 238 kts | 24° |
| 2026-04-23 12:22 | 41.21953 | 9.82814 | 13666 ft | 239 kts | 24° |
| 2026-04-23 12:22 | 41.23472 | 9.83774 | 14072 ft | 241 kts | 24° |
| 2026-04-23 12:22 | 41.24984 | 9.84732 | 14465 ft | 242 kts | 24° |
| 2026-04-23 12:22 | 41.26521 | 9.85570 | 14840 ft | 242 kts | 16° |
| 2026-04-23 12:23 | 41.28152 | 9.86173 | 15204 ft | 244 kts | 14° |
| 2026-04-23 12:23 | 41.29807 | 9.86757 | 15562 ft | 245 kts | 14° |
| 2026-04-23 12:23 | 41.31448 | 9.87337 | 15907 ft | 246 kts | 14° |
| 2026-04-23 12:23 | 41.33098 | 9.87923 | 16243 ft | 248 kts | 14° |
| 2026-04-23 12:24 | 41.34787 | 9.88525 | 16578 ft | 249 kts | 14° |
| 2026-04-23 12:24 | 41.36459 | 9.89123 | 16903 ft | 250 kts | 14° |
| 2026-04-23 12:24 | 41.38126 | 9.89721 | 17220 ft | 251 kts | 15° |
| 2026-04-23 12:24 | 41.39815 | 9.90327 | 17534 ft | 252 kts | 15° |
| 2026-04-23 12:25 | 41.41499 | 9.90933 | 17833 ft | 253 kts | 15° |
| 2026-04-23 12:25 | 41.43209 | 9.91550 | 18124 ft | 254 kts | 15° |
| 2026-04-23 12:25 | 41.44926 | 9.92169 | 18410 ft | 256 kts | 15° |
| 2026-04-23 12:25 | 41.46634 | 9.92786 | 18688 ft | 257 kts | 15° |
| 2026-04-23 12:26 | 41.48367 | 9.93412 | 18963 ft | 258 kts | 15° |
| 2026-04-23 12:26 | 41.50097 | 9.94039 | 19233 ft | 259 kts | 15° |
| 2026-04-23 12:26 | 41.51827 | 9.94664 | 19494 ft | 259 kts | 16° |
| 2026-04-23 12:26 | 41.53572 | 9.95295 | 19752 ft | 260 kts | 16° |
| 2026-04-23 12:27 | 41.55318 | 9.95928 | 19999 ft | 261 kts | 16° |
| 2026-04-23 12:27 | 41.57089 | 9.96570 | 20238 ft | 262 kts | 16° |
| 2026-04-23 12:27 | 41.58848 | 9.97207 | 20454 ft | 263 kts | 16° |
| 2026-04-23 12:27 | 41.60609 | 9.97846 | 20660 ft | 264 kts | 17° |
| 2026-04-23 12:28 | 41.62382 | 9.98490 | 20862 ft | 264 kts | 17° |
| 2026-04-23 12:28 | 41.64146 | 9.99131 | 21060 ft | 265 kts | 17° |
| 2026-04-23 12:28 | 41.65936 | 9.99781 | 21252 ft | 265 kts | 17° |
| 2026-04-23 12:28 | 41.67707 | 10.00426 | 21438 ft | 265 kts | 17° |
| 2026-04-23 12:29 | 41.69505 | 10.01080 | 21618 ft | 266 kts | 17° |
| 2026-04-23 12:29 | 41.71284 | 10.01729 | 21786 ft | 267 kts | 17° |
| 2026-04-23 12:29 | 41.73087 | 10.02386 | 21954 ft | 267 kts | 18° |
| 2026-04-23 12:29 | 41.74871 | 10.03037 | 22115 ft | 268 kts | 18° |
| 2026-04-23 12:30 | 41.76687 | 10.03700 | 22262 ft | 269 kts | 18° |
| 2026-04-23 12:30 | 41.78474 | 10.04352 | 22410 ft | 269 kts | 18° |
| 2026-04-23 12:30 | 41.80271 | 10.05009 | 22552 ft | 269 kts | 18° |
| 2026-04-23 12:30 | 41.82093 | 10.05675 | 22692 ft | 270 kts | 18° |
| 2026-04-23 12:31 | 41.83894 | 10.06334 | 22821 ft | 270 kts | 18° |
| 2026-04-23 12:31 | 41.85725 | 10.07004 | 22941 ft | 271 kts | 18° |
| 2026-04-23 12:31 | 41.87529 | 10.07665 | 23055 ft | 271 kts | 18° |
| 2026-04-23 12:31 | 41.89366 | 10.08338 | 23170 ft | 272 kts | 18° |
| 2026-04-23 12:32 | 41.91182 | 10.09004 | 23280 ft | 272 kts | 18° |
| 2026-04-23 12:32 | 41.93009 | 10.09674 | 23390 ft | 272 kts | 18° |
| 2026-04-23 12:32 | 41.94840 | 10.10346 | 23495 ft | 272 kts | 19° |
| 2026-04-23 12:32 | 41.96654 | 10.11013 | 23596 ft | 272 kts | 19° |
| 2026-04-23 12:33 | 41.98483 | 10.11685 | 23691 ft | 273 kts | 19° |
| 2026-04-23 12:33 | 42.00306 | 10.12356 | 23783 ft | 273 kts | 19° |
| 2026-04-23 12:33 | 42.02145 | 10.13033 | 23873 ft | 274 kts | 19° |
| 2026-04-23 12:33 | 42.03978 | 10.13708 | 23960 ft | 274 kts | 19° |
| 2026-04-23 12:34 | 42.05832 | 10.14391 | 24043 ft | 274 kts | 19° |
| 2026-04-23 12:34 | 42.07663 | 10.15066 | 24118 ft | 275 kts | 19° |
| 2026-04-23 12:34 | 42.09517 | 10.15750 | 24193 ft | 275 kts | 19° |
| 2026-04-23 12:34 | 42.11373 | 10.16435 | 24224 ft | 277 kts | 19° |
| 2026-04-23 12:35 | 42.13245 | 10.17127 | 24230 ft | 281 kts | 19° |
| 2026-04-23 12:35 | 42.15134 | 10.17826 | 24230 ft | 284 kts | 19° |
| 2026-04-23 12:35 | 42.17049 | 10.18534 | 24227 ft | 287 kts | 19° |
| 2026-04-23 12:35 | 42.19001 | 10.19256 | 24224 ft | 290 kts | 19° |
| 2026-04-23 12:36 | 42.20940 | 10.19972 | 24211 ft | 293 kts | 19° |
| 2026-04-23 12:36 | 42.22923 | 10.20706 | 24208 ft | 295 kts | 19° |
| 2026-04-23 12:36 | 42.24891 | 10.21433 | 24207 ft | 296 kts | 19° |
| 2026-04-23 12:36 | 42.26884 | 10.22170 | 24208 ft | 296 kts | 19° |
| 2026-04-23 12:37 | 42.28861 | 10.22903 | 24212 ft | 296 kts | 19° |
| 2026-04-23 12:37 | 42.30870 | 10.23648 | 24215 ft | 297 kts | 19° |
| 2026-04-23 12:37 | 42.32840 | 10.24380 | 24218 ft | 297 kts | 19° |
| 2026-04-23 12:37 | 42.34849 | 10.25126 | 24220 ft | 297 kts | 19° |
| 2026-04-23 12:38 | 42.36808 | 10.25940 | 24218 ft | 295 kts | 24° |
| 2026-04-23 12:38 | 42.38701 | 10.27054 | 24225 ft | 294 kts | 27° |
| 2026-04-23 12:38 | 42.40544 | 10.28195 | 24225 ft | 295 kts | 27° |
| 2026-04-23 12:38 | 42.42419 | 10.29358 | 24226 ft | 295 kts | 27° |
| 2026-04-23 12:39 | 42.44274 | 10.30505 | 24226 ft | 295 kts | 27° |
| 2026-04-23 12:39 | 42.46155 | 10.31668 | 24226 ft | 296 kts | 27° |
| 2026-04-23 12:39 | 42.48020 | 10.32820 | 24226 ft | 296 kts | 27° |
| 2026-04-23 12:39 | 42.49885 | 10.33971 | 24227 ft | 296 kts | 27° |
| 2026-04-23 12:40 | 42.51755 | 10.35125 | 24228 ft | 296 kts | 27° |
| 2026-04-23 12:40 | 42.53635 | 10.36286 | 24228 ft | 296 kts | 27° |
| 2026-04-23 12:40 | 42.55511 | 10.37445 | 24229 ft | 297 kts | 27° |
| 2026-04-23 12:40 | 42.57394 | 10.38607 | 24230 ft | 297 kts | 27° |
| 2026-04-23 12:41 | 42.59249 | 10.39754 | 24230 ft | 297 kts | 27° |
| 2026-04-23 12:41 | 42.61152 | 10.40930 | 24231 ft | 297 kts | 27° |
| 2026-04-23 12:41 | 42.63009 | 10.42079 | 24231 ft | 297 kts | 27° |
| 2026-04-23 12:41 | 42.64893 | 10.43245 | 24230 ft | 297 kts | 27° |
| 2026-04-23 12:42 | 42.66773 | 10.44409 | 24230 ft | 298 kts | 27° |
| 2026-04-23 12:42 | 42.68666 | 10.45583 | 24230 ft | 298 kts | 27° |
| 2026-04-23 12:42 | 42.70545 | 10.46748 | 24231 ft | 298 kts | 27° |
| 2026-04-23 12:42 | 42.72421 | 10.47912 | 24232 ft | 298 kts | 27° |
| 2026-04-23 12:43 | 42.74310 | 10.49085 | 24232 ft | 298 kts | 27° |
| 2026-04-23 12:43 | 42.76208 | 10.50264 | 24233 ft | 298 kts | 27° |
| 2026-04-23 12:43 | 42.78086 | 10.51431 | 24233 ft | 298 kts | 27° |
| 2026-04-23 12:43 | 42.79978 | 10.52608 | 24233 ft | 298 kts | 27° |
| 2026-04-23 12:44 | 42.81840 | 10.53768 | 24232 ft | 298 kts | 27° |
| 2026-04-23 12:44 | 42.83747 | 10.54955 | 24232 ft | 298 kts | 27° |
| 2026-04-23 12:44 | 42.85621 | 10.56124 | 24231 ft | 298 kts | 27° |
| 2026-04-23 12:44 | 42.87523 | 10.57310 | 24230 ft | 298 kts | 27° |
| 2026-04-23 12:45 | 42.89410 | 10.58488 | 24227 ft | 299 kts | 27° |
| 2026-04-23 12:45 | 42.91287 | 10.59661 | 24223 ft | 299 kts | 27° |
| 2026-04-23 12:45 | 42.93184 | 10.60846 | 24220 ft | 299 kts | 27° |
| 2026-04-23 12:45 | 42.95076 | 10.62030 | 24217 ft | 299 kts | 27° |
| 2026-04-23 12:46 | 42.96944 | 10.63199 | 24214 ft | 299 kts | 27° |
| 2026-04-23 12:46 | 42.98829 | 10.64380 | 24212 ft | 298 kts | 27° |
| 2026-04-23 12:46 | 43.00732 | 10.65572 | 24211 ft | 298 kts | 27° |
| 2026-04-23 12:46 | 43.02623 | 10.66758 | 24208 ft | 298 kts | 27° |
| 2026-04-23 12:47 | 43.04513 | 10.67944 | 24206 ft | 298 kts | 27° |
| 2026-04-23 12:47 | 43.06379 | 10.69116 | 24205 ft | 298 kts | 27° |
| 2026-04-23 12:47 | 43.08282 | 10.70313 | 24205 ft | 298 kts | 27° |
| 2026-04-23 12:47 | 43.10155 | 10.71491 | 24205 ft | 298 kts | 27° |
| 2026-04-23 12:48 | 43.12029 | 10.72671 | 24203 ft | 298 kts | 27° |
| 2026-04-23 12:48 | 43.13915 | 10.73859 | 24199 ft | 298 kts | 27° |
| 2026-04-23 12:48 | 43.15792 | 10.75042 | 24194 ft | 298 kts | 27° |
| 2026-04-23 12:48 | 43.17680 | 10.76232 | 24189 ft | 298 kts | 27° |
| 2026-04-23 12:49 | 43.19562 | 10.77420 | 24185 ft | 298 kts | 27° |
| 2026-04-23 12:49 | 43.21463 | 10.78620 | 24185 ft | 298 kts | 27° |
| 2026-04-23 12:49 | 43.23333 | 10.79802 | 24185 ft | 297 kts | 27° |
| 2026-04-23 12:49 | 43.25221 | 10.80996 | 24187 ft | 297 kts | 27° |
| 2026-04-23 12:50 | 43.27078 | 10.82170 | 24187 ft | 297 kts | 27° |
| 2026-04-23 12:50 | 43.28966 | 10.83366 | 24186 ft | 297 kts | 27° |
| 2026-04-23 12:50 | 43.30835 | 10.84551 | 24184 ft | 297 kts | 27° |
| 2026-04-23 12:50 | 43.32701 | 10.85734 | 24182 ft | 297 kts | 27° |
| 2026-04-23 12:51 | 43.34571 | 10.86920 | 24179 ft | 297 kts | 27° |
| 2026-04-23 12:51 | 43.36440 | 10.88107 | 24177 ft | 296 kts | 27° |
| 2026-04-23 12:51 | 43.38312 | 10.89296 | 24176 ft | 296 kts | 27° |
| 2026-04-23 12:51 | 43.40191 | 10.90491 | 24174 ft | 296 kts | 27° |
| 2026-04-23 12:52 | 43.42069 | 10.91686 | 24173 ft | 296 kts | 27° |
| 2026-04-23 12:52 | 43.43916 | 10.92862 | 24172 ft | 296 kts | 27° |
| 2026-04-23 12:52 | 43.45785 | 10.94053 | 24171 ft | 295 kts | 27° |
| 2026-04-23 12:52 | 43.47659 | 10.95248 | 24170 ft | 295 kts | 27° |
| 2026-04-23 12:53 | 43.49525 | 10.96438 | 24170 ft | 295 kts | 27° |
| 2026-04-23 12:53 | 43.51377 | 10.97621 | 24169 ft | 295 kts | 27° |
| 2026-04-23 12:53 | 43.53244 | 10.98814 | 24169 ft | 294 kts | 27° |
| 2026-04-23 12:53 | 43.55090 | 10.99994 | 24168 ft | 294 kts | 27° |
| 2026-04-23 12:54 | 43.56952 | 11.01185 | 24167 ft | 294 kts | 27° |
| 2026-04-23 12:54 | 43.58818 | 11.02380 | 24166 ft | 294 kts | 27° |
| 2026-04-23 12:54 | 43.60660 | 11.03560 | 24165 ft | 294 kts | 27° |
| 2026-04-23 12:54 | 43.62523 | 11.04754 | 24165 ft | 294 kts | 27° |
| 2026-04-23 12:55 | 43.64370 | 11.05939 | 24167 ft | 293 kts | 27° |
| 2026-04-23 12:55 | 43.66214 | 11.07123 | 24173 ft | 293 kts | 27° |
| 2026-04-23 12:55 | 43.68053 | 11.08305 | 24179 ft | 293 kts | 27° |
| 2026-04-23 12:55 | 43.69900 | 11.09492 | 24186 ft | 292 kts | 27° |
| 2026-04-23 12:56 | 43.71755 | 11.10685 | 24192 ft | 292 kts | 27° |
| 2026-04-23 12:56 | 43.73581 | 11.11861 | 24199 ft | 292 kts | 27° |
| 2026-04-23 12:56 | 43.75440 | 11.13058 | 24204 ft | 292 kts | 27° |
| 2026-04-23 12:56 | 43.77278 | 11.14243 | 24212 ft | 292 kts | 27° |
| 2026-04-23 12:57 | 43.79125 | 11.15434 | 24218 ft | 291 kts | 27° |
| 2026-04-23 12:57 | 43.80955 | 11.16615 | 24217 ft | 291 kts | 27° |
| 2026-04-23 12:57 | 43.82785 | 11.17797 | 24213 ft | 291 kts | 27° |
| 2026-04-23 12:57 | 43.84622 | 11.18985 | 24209 ft | 291 kts | 27° |
| 2026-04-23 12:58 | 43.86449 | 11.20167 | 24204 ft | 291 kts | 27° |
| 2026-04-23 12:58 | 43.88304 | 11.21367 | 24204 ft | 291 kts | 27° |
| 2026-04-23 12:58 | 43.90126 | 11.22547 | 24204 ft | 291 kts | 27° |
| 2026-04-23 12:58 | 43.91951 | 11.23730 | 24203 ft | 290 kts | 27° |
| 2026-04-23 12:59 | 43.93791 | 11.24923 | 24204 ft | 290 kts | 27° |
| 2026-04-23 12:59 | 43.95612 | 11.26104 | 24205 ft | 290 kts | 27° |
| 2026-04-23 12:59 | 43.97440 | 11.27291 | 24207 ft | 290 kts | 28° |
| 2026-04-23 12:59 | 43.99260 | 11.28475 | 24210 ft | 290 kts | 28° |
| 2026-04-23 13:00 | 44.01082 | 11.29659 | 24215 ft | 290 kts | 28° |
| 2026-04-23 13:00 | 44.02908 | 11.30848 | 24220 ft | 290 kts | 28° |
| 2026-04-23 13:00 | 44.04723 | 11.32030 | 24226 ft | 290 kts | 28° |
| 2026-04-23 13:00 | 44.06553 | 11.33223 | 24231 ft | 290 kts | 27° |
| 2026-04-23 13:01 | 44.08381 | 11.34415 | 24232 ft | 290 kts | 27° |
| 2026-04-23 13:01 | 44.10216 | 11.35612 | 24222 ft | 291 kts | 27° |
| 2026-04-23 13:01 | 44.12056 | 11.36814 | 24210 ft | 292 kts | 27° |
| 2026-04-23 13:01 | 44.13926 | 11.37981 | 24195 ft | 295 kts | 22° |
| 2026-04-23 13:02 | 44.15982 | 11.38266 | 24200 ft | 303 kts | 358° |
| 2026-04-23 13:02 | 44.18051 | 11.37816 | 24192 ft | 307 kts | 355° |
| 2026-04-23 13:02 | 44.20183 | 11.37302 | 24186 ft | 308 kts | 355° |
| 2026-04-23 13:02 | 44.22271 | 11.36797 | 24180 ft | 309 kts | 355° |
| 2026-04-23 13:03 | 44.24398 | 11.36285 | 24170 ft | 311 kts | 355° |
| 2026-04-23 13:03 | 44.26532 | 11.35774 | 24149 ft | 311 kts | 355° |
| 2026-04-23 13:03 | 44.28682 | 11.35260 | 24162 ft | 311 kts | 355° |
| 2026-04-23 13:03 | 44.30786 | 11.34758 | 24186 ft | 310 kts | 355° |
| 2026-04-23 13:04 | 44.32915 | 11.34252 | 24218 ft | 309 kts | 355° |
| 2026-04-23 13:04 | 44.35027 | 11.33751 | 24232 ft | 309 kts | 355° |
| 2026-04-23 13:04 | 44.37163 | 11.33246 | 24235 ft | 310 kts | 355° |
| 2026-04-23 13:04 | 44.39278 | 11.32746 | 24235 ft | 310 kts | 355° |
| 2026-04-23 13:05 | 44.41405 | 11.32242 | 24234 ft | 311 kts | 355° |
| 2026-04-23 13:05 | 44.43538 | 11.31737 | 24231 ft | 311 kts | 355° |
| 2026-04-23 13:05 | 44.45697 | 11.31226 | 24226 ft | 311 kts | 355° |
| 2026-04-23 13:05 | 44.47809 | 11.30725 | 24222 ft | 311 kts | 355° |
| 2026-04-23 13:06 | 44.52114 | 11.29704 | 24211 ft | 312 kts | 355° |
| 2026-04-23 13:06 | 44.54236 | 11.29200 | 24210 ft | 311 kts | 355° |
| 2026-04-23 13:06 | 44.56389 | 11.28688 | 24210 ft | 311 kts | 355° |
| 2026-04-23 13:07 | 44.58530 | 11.28180 | 24210 ft | 311 kts | 355° |
| 2026-04-23 13:07 | 44.60654 | 11.27674 | 24210 ft | 311 kts | 355° |
| 2026-04-23 13:07 | 44.62779 | 11.27169 | 24210 ft | 311 kts | 355° |
| 2026-04-23 13:07 | 44.64930 | 11.26656 | 24209 ft | 311 kts | 355° |
| 2026-04-23 13:08 | 44.67060 | 11.26148 | 24210 ft | 311 kts | 355° |
| 2026-04-23 13:08 | 44.69192 | 11.25639 | 24211 ft | 311 kts | 355° |
| 2026-04-23 13:08 | 44.71345 | 11.25125 | 24211 ft | 311 kts | 355° |
| 2026-04-23 13:08 | 44.73477 | 11.24616 | 24212 ft | 311 kts | 355° |
| 2026-04-23 13:09 | 44.75601 | 11.24108 | 24213 ft | 311 kts | 355° |
| 2026-04-23 13:09 | 44.77736 | 11.23598 | 24213 ft | 311 kts | 355° |
| 2026-04-23 13:09 | 44.79853 | 11.23091 | 24214 ft | 311 kts | 355° |
| 2026-04-23 13:09 | 44.81999 | 11.22577 | 24214 ft | 311 kts | 355° |
| 2026-04-23 13:10 | 44.84117 | 11.22069 | 24205 ft | 311 kts | 354° |
| 2026-04-23 13:10 | 44.86250 | 11.21558 | 24192 ft | 312 kts | 354° |
| 2026-04-23 13:10 | 44.88405 | 11.21040 | 24177 ft | 312 kts | 354° |
| 2026-04-23 13:10 | 44.90538 | 11.20528 | 24162 ft | 313 kts | 354° |
| 2026-04-23 13:11 | 44.92672 | 11.20014 | 24154 ft | 312 kts | 354° |
| 2026-04-23 13:11 | 44.94830 | 11.19494 | 24152 ft | 311 kts | 354° |
| 2026-04-23 13:11 | 44.96948 | 11.18983 | 24151 ft | 310 kts | 354° |
| 2026-04-23 13:11 | 44.99077 | 11.18470 | 24151 ft | 310 kts | 354° |
| 2026-04-23 13:12 | 45.01197 | 11.17959 | 24152 ft | 309 kts | 354° |
| 2026-04-23 13:12 | 45.03323 | 11.17446 | 24153 ft | 309 kts | 354° |
| 2026-04-23 13:12 | 45.05423 | 11.16938 | 24154 ft | 308 kts | 354° |
| 2026-04-23 13:12 | 45.07533 | 11.16428 | 24155 ft | 308 kts | 354° |
| 2026-04-23 13:13 | 45.09640 | 11.15919 | 24155 ft | 308 kts | 354° |
| 2026-04-23 13:13 | 45.11755 | 11.15407 | 24154 ft | 307 kts | 354° |
| 2026-04-23 13:13 | 45.13867 | 11.14896 | 24154 ft | 307 kts | 354° |
| 2026-04-23 13:13 | 45.15998 | 11.14379 | 24153 ft | 307 kts | 354° |
| 2026-04-23 13:14 | 45.18089 | 11.13873 | 24152 ft | 307 kts | 354° |
| 2026-04-23 13:14 | 45.20184 | 11.13364 | 24151 ft | 308 kts | 354° |
| 2026-04-23 13:14 | 45.22310 | 11.12847 | 24151 ft | 308 kts | 354° |
| 2026-04-23 13:14 | 45.24396 | 11.12340 | 24152 ft | 308 kts | 354° |
| 2026-04-23 13:15 | 45.26519 | 11.11823 | 24152 ft | 308 kts | 354° |
| 2026-04-23 13:15 | 45.28616 | 11.11312 | 24153 ft | 307 kts | 354° |
| 2026-04-23 13:15 | 45.30724 | 11.10798 | 24154 ft | 307 kts | 354° |
| 2026-04-23 13:15 | 45.32851 | 11.10279 | 24120 ft | 307 kts | 354° |
| 2026-04-23 13:16 | 45.34952 | 11.09763 | 23883 ft | 307 kts | 354° |
| 2026-04-23 13:16 | 45.37044 | 11.09250 | 23570 ft | 310 kts | 354° |
| 2026-04-23 13:16 | 45.39195 | 11.08724 | 23213 ft | 313 kts | 354° |
| 2026-04-23 13:16 | 45.41339 | 11.08199 | 22838 ft | 317 kts | 354° |
| 2026-04-23 13:17 | 45.43517 | 11.07664 | 22424 ft | 318 kts | 354° |
| 2026-04-23 13:17 | 45.45698 | 11.07127 | 22033 ft | 319 kts | 354° |
| 2026-04-23 13:17 | 45.47876 | 11.06591 | 21653 ft | 319 kts | 354° |
| 2026-04-23 13:17 | 45.50072 | 11.06049 | 21273 ft | 318 kts | 354° |
| 2026-04-23 13:18 | 45.52234 | 11.05516 | 20900 ft | 317 kts | 354° |
| 2026-04-23 13:18 | 45.54404 | 11.04981 | 20527 ft | 316 kts | 354° |
| 2026-04-23 13:18 | 45.56591 | 11.04442 | 20151 ft | 315 kts | 354° |
| 2026-04-23 13:18 | 45.58746 | 11.03909 | 19783 ft | 314 kts | 353° |
| 2026-04-23 13:19 | 45.60893 | 11.03379 | 19417 ft | 313 kts | 353° |
| 2026-04-23 13:19 | 45.63023 | 11.02853 | 19053 ft | 312 kts | 354° |
| 2026-04-23 13:19 | 45.65156 | 11.02661 | 18705 ft | 302 kts | 8° |
| 2026-04-23 13:19 | 45.67198 | 11.03114 | 18376 ft | 296 kts | 12° |
| 2026-04-23 13:20 | 45.69220 | 11.03627 | 18023 ft | 291 kts | 12° |
| 2026-04-23 13:20 | 45.71191 | 11.04131 | 17675 ft | 286 kts | 12° |
| 2026-04-23 13:20 | 45.73128 | 11.04625 | 17329 ft | 281 kts | 12° |
| 2026-04-23 13:20 | 45.75033 | 11.05109 | 16986 ft | 277 kts | 12° |
| 2026-04-23 13:21 | 45.76896 | 11.05580 | 16639 ft | 273 kts | 12° |
| 2026-04-23 13:21 | 45.78763 | 11.06052 | 16298 ft | 269 kts | 12° |
| 2026-04-23 13:21 | 45.80574 | 11.06509 | 15970 ft | 265 kts | 12° |
| 2026-04-23 13:21 | 45.82395 | 11.06969 | 15618 ft | 261 kts | 12° |
| 2026-04-23 13:22 | 45.84165 | 11.07416 | 15192 ft | 254 kts | 12° |
| 2026-04-23 13:22 | 45.85863 | 11.07844 | 14859 ft | 244 kts | 12° |
| 2026-04-23 13:22 | 45.87501 | 11.08259 | 14574 ft | 237 kts | 12° |
| 2026-04-23 13:22 | 45.89133 | 11.08677 | 14343 ft | 239 kts | 12° |
| 2026-04-23 13:23 | 45.90795 | 11.09105 | 14196 ft | 244 kts | 11° |
| 2026-04-23 13:23 | 45.92469 | 11.09530 | 13950 ft | 245 kts | 11° |
| 2026-04-23 13:23 | 45.94147 | 11.09952 | 13671 ft | 245 kts | 11° |
| 2026-04-23 13:23 | 45.95827 | 11.10373 | 13379 ft | 245 kts | 11° |
| 2026-04-23 13:24 | 45.97504 | 11.10795 | 13082 ft | 245 kts | 11° |
| 2026-04-23 13:24 | 45.99205 | 11.11223 | 12776 ft | 246 kts | 11° |
| 2026-04-23 13:24 | 46.00897 | 11.11651 | 12472 ft | 247 kts | 11° |
| 2026-04-23 13:24 | 46.02589 | 11.12087 | 12187 ft | 246 kts | 12° |
| 2026-04-23 13:25 | 46.04213 | 11.12716 | 12043 ft | 238 kts | 17° |
| 2026-04-23 13:25 | 46.05777 | 11.13418 | 11749 ft | 237 kts | 18° |
| 2026-04-23 13:25 | 46.07359 | 11.14138 | 11386 ft | 239 kts | 18° |
| 2026-04-23 13:25 | 46.08947 | 11.14856 | 10990 ft | 240 kts | 17° |
| 2026-04-23 13:26 | 46.10523 | 11.15566 | 10584 ft | 240 kts | 17° |
| 2026-04-23 13:26 | 46.12125 | 11.16256 | 10164 ft | 239 kts | 15° |
| 2026-04-23 13:26 | 46.13728 | 11.16881 | 9771 ft | 236 kts | 15° |
| 2026-04-23 13:26 | 46.15297 | 11.17490 | 9375 ft | 235 kts | 15° |
| 2026-04-23 13:27 | 46.16878 | 11.18108 | 9069 ft | 235 kts | 15° |
| 2026-04-23 13:27 | 46.18459 | 11.18728 | 8687 ft | 234 kts | 14° |
| 2026-04-23 13:27 | 46.20001 | 11.19328 | 8352 ft | 230 kts | 14° |
| 2026-04-23 13:27 | 46.21524 | 11.19924 | 7975 ft | 225 kts | 14° |
| 2026-04-23 13:28 | 46.23015 | 11.20509 | 7526 ft | 218 kts | 14° |
| 2026-04-23 13:28 | 46.24437 | 11.21122 | 7103 ft | 211 kts | 18° |
| 2026-04-23 13:28 | 46.25782 | 11.21855 | 6725 ft | 203 kts | 19° |
| 2026-04-23 13:28 | 46.27079 | 11.22582 | 6333 ft | 198 kts | 19° |
| 2026-04-23 13:29 | 46.28345 | 11.23294 | 5954 ft | 192 kts | 19° |
| 2026-04-23 13:29 | 46.29551 | 11.23972 | 5603 ft | 179 kts | 19° |
| 2026-04-23 13:29 | 46.30665 | 11.24600 | 5292 ft | 162 kts | 19° |
| 2026-04-23 13:29 | 46.31656 | 11.25162 | 4984 ft | 146 kts | 19° |
| 2026-04-23 13:30 | 46.32561 | 11.25673 | 4667 ft | 131 kts | 19° |
| 2026-04-23 13:30 | 46.33404 | 11.26169 | 4527 ft | 135 kts | 20° |
| 2026-04-23 13:30 | 46.34271 | 11.26669 | 4189 ft | 134 kts | 19° |
| 2026-04-23 13:30 | 46.35125 | 11.27149 | 3895 ft | 129 kts | 19° |
| 2026-04-23 13:31 | 46.35950 | 11.27615 | 3637 ft | 125 kts | 19° |
| 2026-04-23 13:31 | 46.36756 | 11.28075 | 3394 ft | 125 kts | 20° |
| 2026-04-23 13:31 | 46.37582 | 11.28548 | 3143 ft | 129 kts | 20° |
| 2026-04-23 13:31 | 46.38432 | 11.29040 | 2891 ft | 134 kts | 23° |
| 2026-04-23 13:32 | 46.39245 | 11.29676 | 2679 ft | 136 kts | 28° |
| 2026-04-23 13:32 | 46.40076 | 11.30386 | 2468 ft | 139 kts | 29° |
| 2026-04-23 13:32 | 46.40923 | 11.31038 | 2221 ft | 140 kts | 22° |
| 2026-04-23 13:32 | 46.41847 | 11.31514 | 1912 ft | 142 kts | 13° |
| 2026-04-23 13:33 | 46.42794 | 11.31787 | 1538 ft | 142 kts | 8° |
| 2026-04-23 13:33 | 46.43765 | 11.32037 | 1248 ft | 144 kts | 10° |
| 2026-04-23 13:33 | 46.44736 | 11.32291 | 945 ft | 137 kts | 10° |
| 2026-04-23 13:33 | 46.45609 | 11.32522 | 810 ft | 117 kts | 11° |
| 2026-04-23 13:34 | 46.46162 | 11.32679 | 818 ft | 35 kts | 11° |
| 2026-04-23 13:34 | 46.46245 | 11.32713 | 824 ft | 5 kts | 72° |
| 2026-04-23 13:34 | 46.46242 | 11.32768 | 829 ft | 4 kts | 98° |
| 2026-04-23 13:34 | 46.46241 | 11.32783 | 834 ft | 0 kts | 98° |
| 2026-04-23 13:35 | 46.46240 | 11.32794 | 834 ft | 1 kts | 86° |
| 2026-04-23 13:35 | 46.46250 | 11.32819 | 834 ft | 4 kts | 63° |
| 2026-04-23 13:35 | 46.46251 | 11.32871 | 834 ft | 5 kts | 98° |
| 2026-04-23 13:35 | 46.46250 | 11.32878 | 834 ft | 0 kts | 98° |